createdAt,value
2019-05-01T00:01:34.579Z,3.15
2019-05-01T00:04:27.052Z,2.47
2019-05-01T00:07:01.446Z,2.42
2019-05-01T00:09:32.508Z,3.00
2019-05-01T00:12:03.143Z,2.47
2019-05-01T00:14:34.013Z,3.50
2019-05-01T00:17:06.221Z,2.37
2019-05-01T00:19:37.147Z,2.87
2019-05-01T00:22:07.949Z,2.37
2019-05-01T00:24:38.911Z,2.60
2019-05-01T00:27:09.723Z,2.25
2019-05-01T00:29:40.655Z,3.02
2019-05-01T00:32:11.870Z,2.60
2019-05-01T00:34:42.627Z,2.70
2019-05-01T00:37:13.472Z,2.22
2019-05-01T00:39:44.563Z,2.47
2019-05-01T00:42:16.253Z,2.67
2019-05-01T00:44:47.479Z,3.12
2019-05-01T00:47:18.940Z,4.15
2019-05-01T00:49:49.788Z,2.40
2019-05-01T00:52:20.618Z,2.55
2019-05-01T00:54:53.354Z,3.02
2019-05-01T00:57:33.750Z,2.65
2019-05-01T01:00:22.507Z,2.20
2019-05-01T01:02:54.899Z,2.58
2019-05-01T01:05:25.751Z,2.52
2019-05-01T01:07:56.776Z,3.45
2019-05-01T01:10:27.789Z,2.47
2019-05-01T01:12:58.948Z,3.12
2019-05-01T01:15:29.866Z,2.70
2019-05-01T01:18:00.676Z,2.62
2019-05-01T01:20:31.394Z,3.10
2019-05-01T01:23:02.329Z,2.45
2019-05-01T01:25:33.254Z,2.58
2019-05-01T01:28:04.008Z,2.52
2019-05-01T01:30:34.722Z,3.45
2019-05-01T01:33:05.631Z,5.60
2019-05-01T01:35:36.785Z,2.58
2019-05-01T01:38:07.667Z,2.35
2019-05-01T01:40:38.607Z,4.30
2019-05-01T01:43:27.226Z,2.90
2019-05-01T01:45:59.131Z,2.72
2019-05-01T01:48:29.759Z,3.75
2019-05-01T01:51:01.699Z,2.75
2019-05-01T01:53:32.829Z,2.70
2019-05-01T01:56:04.622Z,2.42
2019-05-01T01:58:35.252Z,3.35
2019-05-01T02:01:24.278Z,3.65
2019-05-01T02:03:59.878Z,2.50
2019-05-01T02:06:30.791Z,2.50
2019-05-01T02:09:01.423Z,2.87
2019-05-01T02:11:32.257Z,3.25
2019-05-01T02:14:03.092Z,2.60
2019-05-01T02:16:34.117Z,3.15
2019-05-01T02:19:04.843Z,3.10
2019-05-01T02:21:35.644Z,3.55
2019-05-01T02:24:08.858Z,2.80
2019-05-01T02:26:43.625Z,3.10
2019-05-01T02:29:20.026Z,2.92
2019-05-01T02:31:51.859Z,2.67
2019-05-01T02:34:22.717Z,3.08
2019-05-01T02:36:53.570Z,2.80
2019-05-01T02:39:24.418Z,4.78
2019-05-01T02:41:55.316Z,2.87
2019-05-01T02:44:38.516Z,3.27
2019-05-01T02:47:11.199Z,3.20
2019-05-01T02:49:51.272Z,2.90
2019-05-01T02:52:23.511Z,2.62
2019-05-01T02:54:54.737Z,2.87
2019-05-01T02:57:25.552Z,3.37
2019-05-01T02:59:56.426Z,3.37
2019-05-01T03:02:27.413Z,3.25
2019-05-01T03:04:58.336Z,3.20
2019-05-01T03:07:30.933Z,3.08
2019-05-01T03:10:01.851Z,3.37
2019-05-01T03:12:32.924Z,3.50
2019-05-01T03:15:04.651Z,3.20
2019-05-01T03:17:55.126Z,3.70
2019-05-01T03:20:54.125Z,3.10
2019-05-01T03:23:31.883Z,3.12
2019-05-01T03:26:02.980Z,3.42
2019-05-01T03:28:34.058Z,3.35
2019-05-01T03:31:04.984Z,3.47
2019-05-01T03:33:36.459Z,3.10
2019-05-01T03:36:07.468Z,3.35
2019-05-01T03:38:38.493Z,3.20
2019-05-01T03:41:09.542Z,3.25
2019-05-01T03:43:40.818Z,3.30
2019-05-01T03:46:12.074Z,3.30
2019-05-01T03:48:42.907Z,3.47
2019-05-01T03:51:13.590Z,3.92
2019-05-01T03:53:44.690Z,3.50
2019-05-01T03:56:15.636Z,3.10
2019-05-01T03:58:46.593Z,3.77
2019-05-01T04:01:39.183Z,3.77
2019-05-01T04:04:18.905Z,3.20
2019-05-01T04:06:49.914Z,3.50
2019-05-01T04:09:20.643Z,3.42
2019-05-01T04:11:51.598Z,3.50
2019-05-01T04:14:22.301Z,3.75
2019-05-01T04:16:59.278Z,3.95
2019-05-01T04:19:30.103Z,4.20
2019-05-01T04:22:07.990Z,3.87
2019-05-01T04:24:39.084Z,3.60
2019-05-01T04:27:11.337Z,4.20
2019-05-01T04:29:49.382Z,3.70
2019-05-01T04:32:51.237Z,4.00
2019-05-01T04:35:26.612Z,3.92
2019-05-01T04:37:58.991Z,4.22
2019-05-01T04:40:30.102Z,3.80
2019-05-01T04:43:00.675Z,3.87
2019-05-01T04:45:31.442Z,4.10
2019-05-01T04:48:02.244Z,4.10
2019-05-01T04:50:33.008Z,4.20
2019-05-01T04:53:04.144Z,4.10
2019-05-01T04:55:34.896Z,4.10
2019-05-01T04:58:05.725Z,4.75
2019-05-01T05:00:36.980Z,4.25
2019-05-01T05:03:12.145Z,3.83
2019-05-01T05:05:42.994Z,3.98
2019-05-01T05:08:13.915Z,5.22
2019-05-01T05:10:44.795Z,7.80
2019-05-01T05:13:27.334Z,9.00
2019-05-01T05:16:15.600Z,9.90
2019-05-01T05:18:46.826Z,11.10
2019-05-01T05:21:18.161Z,11.93
2019-05-01T05:23:48.724Z,10.00
2019-05-01T05:26:19.288Z,11.40
2019-05-01T05:28:49.914Z,10.08
2019-05-01T05:31:21.540Z,10.75
2019-05-01T05:33:51.986Z,10.30
2019-05-01T05:36:22.837Z,10.38
2019-05-01T05:39:01.329Z,9.38
2019-05-01T05:41:32.255Z,10.08
2019-05-01T05:44:03.127Z,9.63
2019-05-01T05:46:34.278Z,9.38
2019-05-01T05:49:05.484Z,9.98
2019-05-01T05:52:00.624Z,9.80
2019-05-01T05:54:56.820Z,9.90
2019-05-01T05:57:39.834Z,9.83
2019-05-01T06:00:20.821Z,9.55
2019-05-01T06:02:58.865Z,10.45
2019-05-01T06:05:38.736Z,10.50
2019-05-01T06:08:15.833Z,9.80
2019-05-01T06:11:09.967Z,10.28
2019-05-01T06:14:00.132Z,10.08
2019-05-01T06:16:52.053Z,10.25
2019-05-01T06:19:36.874Z,10.43
2019-05-01T06:22:24.096Z,9.78
2019-05-01T06:25:01.351Z,10.30
2019-05-01T06:27:32.821Z,10.65
2019-05-01T06:30:06.655Z,10.25
2019-05-01T06:32:39.925Z,10.18
2019-05-01T06:35:11.755Z,10.38
2019-05-01T06:38:03.434Z,10.13
2019-05-01T06:40:42.529Z,11.20
2019-05-01T06:43:49.048Z,9.98
2019-05-01T06:46:44.747Z,10.85
2019-05-01T06:49:34.108Z,11.10
2019-05-01T06:52:05.844Z,11.05
2019-05-01T06:54:36.841Z,10.10
2019-05-01T06:57:08.341Z,10.80
2019-05-01T06:59:40.055Z,11.25
2019-05-01T07:02:11.580Z,10.05
2019-05-01T07:04:43.553Z,10.95
2019-05-01T07:07:24.943Z,11.22
2019-05-01T07:09:49.197Z,11.03
2019-05-01T07:12:24.049Z,10.98
2019-05-01T07:14:55.116Z,11.03
2019-05-01T07:17:26.285Z,11.08
2019-05-01T07:20:19.287Z,11.00
2019-05-01T07:22:50.774Z,11.20
2019-05-01T07:25:21.943Z,10.65
2019-05-01T07:27:53.861Z,11.33
2019-05-01T07:30:41.578Z,11.00
2019-05-01T07:33:16.704Z,11.03
2019-05-01T07:35:46.288Z,11.50
2019-05-01T07:38:17.373Z,10.65
2019-05-01T07:40:48.341Z,10.35
2019-05-01T07:43:59.578Z,10.93
2019-05-01T07:46:48.839Z,9.73
2019-05-01T07:49:19.920Z,10.18
2019-05-01T07:51:51.847Z,10.40
2019-05-01T07:54:23.009Z,10.58
2019-05-01T07:56:53.974Z,10.28
2019-05-01T07:59:27.530Z,11.10
2019-05-01T08:02:00.749Z,9.88
2019-05-01T08:04:38.790Z,10.43
2019-05-01T08:07:05.884Z,10.45
2019-05-01T08:09:36.799Z,15.38
2019-05-01T08:12:07.626Z,17.80
2019-05-01T08:14:38.627Z,20.17
2019-05-01T08:17:12.798Z,24.70
2019-05-01T08:20:09.787Z,20.72
2019-05-01T08:22:40.301Z,19.27
2019-05-01T08:25:11.221Z,19.48
2019-05-01T08:27:58.083Z,20.23
2019-05-01T08:30:43.579Z,19.35
2019-05-01T08:33:44.733Z,18.85
2019-05-01T08:36:16.037Z,19.12
2019-05-01T08:38:47.102Z,19.48
2019-05-01T08:41:17.984Z,19.07
2019-05-01T08:43:53.999Z,18.85
2019-05-01T08:46:39.475Z,20.37
2019-05-01T08:49:18.729Z,18.67
2019-05-01T08:51:49.365Z,19.70
2019-05-01T08:54:20.377Z,17.55
2019-05-01T08:56:53.133Z,18.40
2019-05-01T08:59:25.654Z,18.02
2019-05-01T09:02:08.925Z,17.15
2019-05-01T09:04:30.501Z,17.12
2019-05-01T09:07:01.331Z,17.62
2019-05-01T09:09:33.337Z,16.52
2019-05-01T09:12:07.021Z,19.60
2019-05-01T09:14:37.363Z,17.55
2019-05-01T09:17:10.159Z,17.05
2019-05-01T09:19:41.000Z,19.80
2019-05-01T09:22:11.916Z,18.67
2019-05-01T09:24:42.723Z,17.82
2019-05-01T09:27:29.243Z,17.00
2019-05-01T09:30:04.397Z,22.32
2019-05-01T09:32:34.884Z,19.55
2019-05-01T09:35:15.351Z,16.12
2019-05-01T09:37:38.757Z,18.77
2019-05-01T09:40:10.429Z,17.77
2019-05-01T09:42:41.363Z,16.73
2019-05-01T09:45:12.148Z,17.25
2019-05-01T09:47:43.335Z,22.80
2019-05-01T09:50:14.220Z,21.70
2019-05-01T09:52:55.126Z,17.80
2019-05-01T09:55:30.517Z,18.67
2019-05-01T09:58:02.903Z,16.70
2019-05-01T10:00:33.890Z,18.32
2019-05-01T10:03:04.782Z,15.88
2019-05-01T10:05:37.926Z,20.80
2019-05-01T10:08:08.739Z,15.88
2019-05-01T10:10:39.919Z,18.95
2019-05-01T10:13:11.103Z,15.98
2019-05-01T10:15:42.488Z,15.95
2019-05-01T10:18:13.634Z,16.10
2019-05-01T10:20:44.829Z,16.17
2019-05-01T10:23:15.624Z,33.48
2019-05-01T10:25:52.142Z,21.50
2019-05-01T10:28:50.164Z,20.80
2019-05-01T10:31:30.392Z,16.30
2019-05-01T10:34:09.830Z,52.95
2019-05-01T10:36:49.876Z,27.90
2019-05-01T10:39:20.830Z,27.15
2019-05-01T10:41:52.234Z,24.30
2019-05-01T10:44:23.565Z,18.65
2019-05-01T10:46:58.723Z,17.27
2019-05-01T10:49:30.633Z,15.60
2019-05-01T10:52:13.601Z,19.40
2019-05-01T10:54:34.585Z,23.67
2019-05-01T10:57:05.368Z,19.12
2019-05-01T10:59:36.846Z,18.02
2019-05-01T11:02:11.000Z,17.23
2019-05-01T11:04:43.165Z,15.85
2019-05-01T11:07:14.363Z,16.45
2019-05-01T11:09:46.025Z,16.52
2019-05-01T11:12:17.023Z,22.13
2019-05-01T11:14:47.972Z,18.30
2019-05-01T11:17:20.148Z,16.73
2019-05-01T11:19:50.957Z,24.70
2019-05-01T11:22:22.162Z,19.35
2019-05-01T11:24:53.141Z,20.95
2019-05-01T11:27:23.899Z,15.38
2019-05-01T11:29:54.482Z,15.25
2019-05-01T11:32:47.112Z,13.35
2019-05-01T11:35:49.171Z,12.53
2019-05-01T11:38:30.977Z,12.45
2019-05-01T11:41:05.313Z,15.65
2019-05-01T11:43:36.145Z,12.80
2019-05-01T11:46:06.899Z,12.70
2019-05-01T11:48:37.831Z,13.68
2019-05-01T11:51:10.011Z,13.13
2019-05-01T11:53:40.948Z,12.25
2019-05-01T11:56:11.625Z,11.50
2019-05-01T11:58:42.660Z,11.73
2019-05-01T12:01:15.267Z,11.55
2019-05-01T12:03:47.929Z,11.38
2019-05-01T12:06:22.943Z,11.85
2019-05-01T12:08:51.001Z,10.98
2019-05-01T12:11:23.454Z,11.45
2019-05-01T12:13:54.667Z,11.18
2019-05-01T12:16:43.383Z,11.00
2019-05-01T12:19:14.638Z,10.58
2019-05-01T12:21:45.643Z,11.12
2019-05-01T12:24:16.714Z,10.58
2019-05-01T12:26:49.220Z,10.80
2019-05-01T12:29:20.632Z,10.85
2019-05-01T12:31:51.496Z,10.05
2019-05-01T12:34:23.293Z,11.03
2019-05-01T12:37:13.271Z,10.32
2019-05-01T12:39:44.191Z,10.15
2019-05-01T12:42:15.552Z,10.43
2019-05-01T12:44:46.264Z,10.20
2019-05-01T12:47:22.652Z,9.80
2019-05-01T12:49:54.196Z,9.58
2019-05-01T12:52:38.265Z,9.73
2019-05-01T12:55:14.971Z,9.45
2019-05-01T12:57:45.906Z,10.05
2019-05-01T13:00:18.565Z,10.10
2019-05-01T13:02:49.233Z,9.10
2019-05-01T13:05:20.061Z,9.55
2019-05-01T13:07:52.531Z,9.23
2019-05-01T13:10:23.944Z,8.98
2019-05-01T13:12:54.629Z,8.70
2019-05-01T13:15:25.570Z,8.63
2019-05-01T13:17:56.498Z,8.83
2019-05-01T13:20:27.316Z,8.88
2019-05-01T13:22:58.051Z,9.43
2019-05-01T13:25:28.845Z,9.28
2019-05-01T13:28:12.610Z,8.55
2019-05-01T13:31:08.535Z,8.60
2019-05-01T13:33:39.297Z,8.45
2019-05-01T13:36:10.124Z,8.40
2019-05-01T13:38:40.933Z,7.95
2019-05-01T13:41:11.808Z,8.73
2019-05-01T13:43:42.656Z,8.28
2019-05-01T13:46:13.369Z,12.33
2019-05-01T13:48:44.305Z,12.88
2019-05-01T13:51:14.996Z,10.58
2019-05-01T13:53:45.980Z,8.73
2019-05-01T13:56:17.377Z,8.38
2019-05-01T13:58:48.576Z,8.80
2019-05-01T14:01:19.927Z,8.68
2019-05-01T14:03:50.668Z,8.13
2019-05-01T14:06:21.417Z,8.28
2019-05-01T14:08:52.227Z,7.65
2019-05-01T14:11:22.938Z,8.35
2019-05-01T14:13:53.999Z,8.35
2019-05-01T14:16:24.957Z,7.50
2019-05-01T14:18:55.768Z,7.35
2019-05-01T14:21:37.422Z,7.60
2019-05-01T14:24:31.853Z,7.33
2019-05-01T14:27:02.599Z,7.28
2019-05-01T14:29:33.537Z,7.28
2019-05-01T14:32:04.173Z,7.60
2019-05-01T14:34:35.511Z,6.87
2019-05-01T14:37:07.271Z,6.80
2019-05-01T14:39:37.949Z,7.58
2019-05-01T14:42:08.543Z,6.78
2019-05-01T14:44:39.378Z,6.58
2019-05-01T14:47:10.129Z,11.80
2019-05-01T14:49:40.835Z,14.45
2019-05-01T14:52:11.613Z,13.90
2019-05-01T14:54:42.320Z,8.53
2019-05-01T14:57:13.157Z,11.90
2019-05-01T14:59:44.228Z,7.05
2019-05-01T15:02:15.124Z,6.12
2019-05-01T15:04:45.799Z,8.53
2019-05-01T15:07:16.391Z,7.90
2019-05-01T15:09:47.047Z,5.92
2019-05-01T15:12:17.994Z,6.35
2019-05-01T15:15:18.424Z,6.35
2019-05-01T15:18:11.046Z,6.10
2019-05-01T15:20:41.927Z,6.97
2019-05-01T15:23:12.864Z,5.83
2019-05-01T15:25:43.834Z,5.83
2019-05-01T15:28:14.906Z,5.80
2019-05-01T15:30:46.151Z,5.92
2019-05-01T15:33:17.162Z,5.70
2019-05-01T15:35:48.092Z,5.60
2019-05-01T15:38:18.912Z,6.17
2019-05-01T15:41:10.738Z,5.37
2019-05-01T15:43:51.891Z,4.80
2019-05-01T15:46:22.868Z,5.40
2019-05-01T15:48:53.690Z,5.35
2019-05-01T15:51:24.444Z,5.37
2019-05-01T15:53:55.098Z,5.35
2019-05-01T15:56:25.896Z,5.53
2019-05-01T15:58:56.697Z,5.25
2019-05-01T16:01:27.659Z,5.28
2019-05-01T16:03:58.742Z,5.60
2019-05-01T16:06:29.465Z,4.90
2019-05-01T16:09:00.774Z,4.83
2019-05-01T16:12:02.926Z,4.83
2019-05-01T16:14:33.985Z,5.42
2019-05-01T16:17:06.800Z,5.53
2019-05-01T16:19:37.637Z,5.12
2019-05-01T16:22:08.558Z,4.67
2019-05-01T16:24:42.810Z,4.95
2019-05-01T16:27:13.828Z,4.95
2019-05-01T16:29:44.722Z,5.30
2019-05-01T16:32:15.455Z,4.87
2019-05-01T16:34:46.342Z,9.35
2019-05-01T16:37:17.368Z,8.23
2019-05-01T16:39:58.163Z,9.18
2019-05-01T16:42:37.203Z,8.03
2019-05-01T16:45:08.339Z,6.62
2019-05-01T16:47:39.486Z,6.92
2019-05-01T16:50:10.509Z,5.42
2019-05-01T16:52:43.448Z,98.27
2019-05-01T16:55:14.733Z,110.90
2019-05-01T16:57:45.880Z,155.72
2019-05-01T17:00:16.958Z,181.57
2019-05-01T17:03:04.798Z,147.22
2019-05-01T17:05:52.257Z,471.77
2019-05-01T17:08:41.429Z,383.82
2019-05-01T17:11:12.831Z,345.33
2019-05-01T17:13:44.085Z,276.75
2019-05-01T17:16:15.559Z,252.18
2019-05-01T17:18:46.665Z,216.93
2019-05-01T17:21:17.580Z,202.60
2019-05-01T17:23:48.453Z,166.62
2019-05-01T17:26:19.247Z,97.27
2019-05-01T17:28:50.030Z,112.22
2019-05-01T17:31:20.834Z,105.97
2019-05-01T17:33:55.658Z,79.27
2019-05-01T17:36:24.140Z,55.10
2019-05-01T17:38:55.002Z,50.73
2019-05-01T17:41:27.004Z,59.53
2019-05-01T17:43:58.338Z,48.08
2019-05-01T17:46:29.144Z,51.10
2019-05-01T17:49:04.224Z,49.03
2019-05-01T17:51:32.435Z,45.78
2019-05-01T17:54:03.171Z,37.15
2019-05-01T17:56:34.072Z,37.40
2019-05-01T17:59:05.062Z,33.95
2019-05-01T18:02:10.194Z,36.98
2019-05-01T18:05:07.939Z,32.25
2019-05-01T18:07:38.966Z,30.48
2019-05-01T18:10:10.055Z,32.88
2019-05-01T18:12:40.906Z,25.62
2019-05-01T18:15:11.739Z,30.57
2019-05-01T18:17:42.560Z,28.45
2019-05-01T18:20:13.434Z,28.87
2019-05-01T18:22:54.145Z,28.77
2019-05-01T18:25:47.633Z,32.75
2019-05-01T18:28:29.850Z,26.35
2019-05-01T18:31:00.890Z,24.00
2019-05-01T18:33:31.725Z,24.23
2019-05-01T18:36:02.784Z,22.87
2019-05-01T18:38:47.588Z,23.67
2019-05-01T18:41:27.865Z,21.95
2019-05-01T18:43:58.702Z,19.92
2019-05-01T18:46:29.788Z,23.15
2019-05-01T18:49:00.771Z,22.60
2019-05-01T18:51:36.003Z,19.98
2019-05-01T18:54:04.427Z,22.67
2019-05-01T18:56:38.126Z,20.17
2019-05-01T18:59:07.812Z,20.50
2019-05-01T19:01:38.697Z,19.05
2019-05-01T19:04:09.502Z,18.50
2019-05-01T19:06:41.865Z,17.85
2019-05-01T19:09:15.142Z,20.50
2019-05-01T19:11:45.215Z,17.95
2019-05-01T19:14:16.136Z,17.57
2019-05-01T19:16:47.266Z,19.37
2019-05-01T19:19:18.014Z,20.43
2019-05-01T19:21:48.952Z,16.37
2019-05-01T19:24:19.863Z,17.50
2019-05-01T19:26:50.992Z,15.03
2019-05-01T19:29:26.854Z,20.77
2019-05-01T19:31:54.780Z,17.00
2019-05-01T19:34:25.596Z,15.38
2019-05-01T19:36:56.524Z,15.20
2019-05-01T19:39:27.289Z,15.88
2019-05-01T19:41:58.353Z,33.98
2019-05-01T19:44:29.325Z,63.70
2019-05-01T19:47:00.393Z,72.03
2019-05-01T19:49:31.129Z,65.08
2019-05-01T19:52:02.030Z,63.02
2019-05-01T19:54:33.148Z,65.50
2019-05-01T19:57:05.526Z,67.65
2019-05-01T19:59:36.445Z,64.05
2019-05-01T20:02:09.690Z,66.30
2019-05-01T20:04:40.563Z,61.77
2019-05-01T20:07:15.776Z,61.98
2019-05-01T20:09:56.386Z,68.97
2019-05-01T20:12:16.555Z,62.95
2019-05-01T20:14:47.739Z,55.40
2019-05-01T20:17:18.820Z,62.13
2019-05-01T20:19:49.586Z,54.15
2019-05-01T20:22:20.225Z,51.28
2019-05-01T20:24:50.950Z,57.50
2019-05-01T20:27:21.789Z,56.20
2019-05-01T20:29:52.617Z,54.00
2019-05-01T20:32:26.213Z,47.93
2019-05-01T20:34:59.107Z,38.50
2019-05-01T20:37:28.694Z,37.13
2019-05-01T20:40:10.331Z,29.12
2019-05-01T20:42:32.461Z,24.47
2019-05-01T20:45:06.693Z,21.07
2019-05-01T20:47:45.563Z,21.35
2019-05-01T20:50:08.717Z,18.70
2019-05-01T20:52:39.676Z,19.67
2019-05-01T20:55:10.780Z,19.48
2019-05-01T20:57:45.167Z,17.10
2019-05-01T21:00:18.582Z,17.23
2019-05-01T21:02:49.344Z,18.10
2019-05-01T21:05:34.556Z,15.88
2019-05-01T21:08:15.128Z,14.98
2019-05-01T21:10:57.395Z,15.45
2019-05-01T21:13:28.044Z,14.85
2019-05-01T21:16:01.979Z,14.53
2019-05-01T21:18:31.472Z,13.55
2019-05-01T21:21:03.473Z,14.35
2019-05-01T21:23:34.462Z,14.78
2019-05-01T21:26:05.228Z,13.43
2019-05-01T21:28:36.129Z,14.68
2019-05-01T21:31:07.072Z,17.07
2019-05-01T21:33:40.846Z,13.65
2019-05-01T21:36:10.443Z,15.98
2019-05-01T21:38:41.411Z,13.83
2019-05-01T21:41:12.453Z,13.28
2019-05-01T21:43:43.347Z,13.13
2019-05-01T21:46:14.195Z,15.28
2019-05-01T21:48:45.188Z,11.20
2019-05-01T21:51:16.044Z,11.25
2019-05-01T21:53:46.890Z,12.55
2019-05-01T21:56:17.751Z,11.80
2019-05-01T21:58:48.687Z,11.20
2019-05-01T22:01:19.758Z,12.63
2019-05-01T22:03:52.463Z,11.00
2019-05-01T22:06:23.721Z,11.28
2019-05-01T22:08:54.461Z,10.40
2019-05-01T22:11:25.428Z,10.48
2019-05-01T22:14:00.173Z,12.18
2019-05-01T22:16:29.415Z,11.75
2019-05-01T22:19:05.282Z,11.22
2019-05-01T22:21:51.438Z,10.40
2019-05-01T22:24:44.392Z,9.15
2019-05-01T22:27:20.665Z,10.03
2019-05-01T22:30:05.628Z,9.98
2019-05-01T22:32:42.000Z,8.88
2019-05-01T22:35:18.304Z,9.35
2019-05-01T22:37:51.017Z,9.30
2019-05-01T22:40:33.153Z,10.05
2019-05-01T22:43:06.277Z,9.90
2019-05-01T22:45:38.305Z,9.15
2019-05-01T22:48:12.062Z,8.55
2019-05-01T22:50:45.730Z,8.50
2019-05-01T22:53:17.809Z,8.85
2019-05-01T22:55:51.470Z,9.85
2019-05-01T22:58:24.461Z,8.58
2019-05-01T23:00:58.962Z,11.33
2019-05-01T23:03:47.005Z,10.93
2019-05-01T23:06:19.680Z,7.92
2019-05-01T23:08:52.339Z,7.65
2019-05-01T23:11:26.574Z,7.67
2019-05-01T23:14:00.219Z,7.83
2019-05-01T23:16:37.926Z,7.47
2019-05-01T23:19:10.834Z,8.68
2019-05-01T23:21:45.807Z,7.37
2019-05-01T23:24:16.485Z,9.33
2019-05-01T23:26:48.057Z,7.45
2019-05-01T23:29:19.918Z,8.33
2019-05-01T23:31:51.103Z,6.87
2019-05-01T23:34:26.320Z,6.72
2019-05-01T23:36:54.191Z,6.97
2019-05-01T23:39:24.969Z,7.22
2019-05-01T23:41:55.866Z,6.80
2019-05-01T23:44:26.881Z,6.83
2019-05-01T23:46:57.798Z,7.05
2019-05-01T23:49:28.520Z,6.83
2019-05-01T23:52:03.435Z,7.25
2019-05-01T23:54:31.473Z,6.22
2019-05-01T23:57:02.049Z,7.12
2019-05-01T23:59:32.614Z,5.85
